createdAt,value
2019-02-14T00:00:38.303Z,99.90
2019-02-14T00:03:06.381Z,99.90
2019-02-14T00:05:34.176Z,99.90
2019-02-14T00:08:01.995Z,99.90
2019-02-14T00:10:31.734Z,99.90
2019-02-14T00:12:59.879Z,99.90
2019-02-14T00:15:27.778Z,99.90
2019-02-14T00:17:55.557Z,99.90
2019-02-14T00:20:23.525Z,99.90
2019-02-14T00:22:51.594Z,99.90
2019-02-14T00:25:19.346Z,99.60
2019-02-14T00:27:47.120Z,99.90
2019-02-14T00:30:15.010Z,99.50
2019-02-14T00:32:42.779Z,99.90
2019-02-14T00:35:12.693Z,99.90
2019-02-14T00:37:40.673Z,99.90
2019-02-14T00:40:08.439Z,99.90
2019-02-14T00:42:36.413Z,99.90
2019-02-14T00:45:05.660Z,99.90
2019-02-14T00:47:33.411Z,99.90
2019-02-14T00:50:01.358Z,99.90
2019-02-14T00:52:29.124Z,99.90
2019-02-14T00:54:57.102Z,99.90
2019-02-14T00:57:24.856Z,99.90
2019-02-14T00:59:52.619Z,99.90
2019-02-14T01:02:20.509Z,99.70
2019-02-14T01:04:48.299Z,99.90
2019-02-14T01:07:16.269Z,99.90
2019-02-14T01:09:44.112Z,99.90
2019-02-14T01:12:12.116Z,99.90
2019-02-14T01:14:40.067Z,99.90
2019-02-14T01:17:08.050Z,99.90
2019-02-14T01:19:38.453Z,99.90
2019-02-14T01:22:06.249Z,99.90
2019-02-14T01:24:34.210Z,99.90
2019-02-14T01:27:01.980Z,99.90
2019-02-14T01:29:29.752Z,99.90
2019-02-14T01:31:57.717Z,99.90
2019-02-14T01:34:25.511Z,99.90
2019-02-14T01:36:53.280Z,99.90
2019-02-14T01:39:21.332Z,99.90
2019-02-14T01:41:49.240Z,99.90
2019-02-14T01:44:17.004Z,99.90
2019-02-14T01:46:44.958Z,99.90
2019-02-14T01:49:12.723Z,99.90
2019-02-14T01:51:40.481Z,99.90
2019-02-14T01:54:08.435Z,99.90
2019-02-14T01:56:36.207Z,99.90
2019-02-14T01:59:05.089Z,99.90
2019-02-14T02:01:33.121Z,99.90
2019-02-14T02:04:00.887Z,99.60
2019-02-14T02:06:28.662Z,99.40
2019-02-14T02:08:57.014Z,99.50
2019-02-14T02:11:24.838Z,99.90
2019-02-14T02:13:52.616Z,99.90
2019-02-14T02:16:21.760Z,99.90
2019-02-14T02:18:49.523Z,99.90
2019-02-14T02:21:17.398Z,99.90
2019-02-14T02:23:45.364Z,99.90
2019-02-14T02:26:13.248Z,99.90
2019-02-14T02:28:41.215Z,99.90
2019-02-14T02:31:10.373Z,99.90
2019-02-14T02:33:38.291Z,99.90
2019-02-14T02:36:06.058Z,99.90
2019-02-14T02:38:33.824Z,99.90
2019-02-14T02:41:01.686Z,99.90
2019-02-14T02:43:29.648Z,99.90
2019-02-14T02:45:59.210Z,99.90
2019-02-14T02:48:27.151Z,99.90
2019-02-14T02:50:55.126Z,99.90
2019-02-14T02:53:22.908Z,99.90
2019-02-14T02:55:50.880Z,99.90
2019-02-14T02:58:18.953Z,99.90
2019-02-14T03:00:46.741Z,99.90
2019-02-14T03:03:21.780Z,99.90
2019-02-14T03:05:49.536Z,99.90
2019-02-14T03:08:17.504Z,99.90
2019-02-14T03:10:45.463Z,99.90
2019-02-14T03:13:13.249Z,99.90
2019-02-14T03:15:43.819Z,99.90
2019-02-14T03:18:11.746Z,99.90
2019-02-14T03:20:39.505Z,99.90
2019-02-14T03:23:08.380Z,99.90
2019-02-14T03:25:38.215Z,99.90
2019-02-14T03:28:06.056Z,99.90
2019-02-14T03:30:33.961Z,99.90
2019-02-14T03:33:02.138Z,99.90
2019-02-14T03:35:29.925Z,99.90
2019-02-14T03:37:57.684Z,99.90
2019-02-14T03:40:25.538Z,99.90
2019-02-14T03:42:54.113Z,99.90
2019-02-14T03:45:21.979Z,99.90
2019-02-14T03:47:49.871Z,99.90
2019-02-14T03:50:17.648Z,99.90
2019-02-14T03:52:45.416Z,99.90
2019-02-14T03:55:13.389Z,99.90
2019-02-14T03:57:41.254Z,99.90
2019-02-14T04:00:12.648Z,99.90
2019-02-14T04:02:40.422Z,99.90
2019-02-14T04:05:08.825Z,99.90
2019-02-14T04:07:36.807Z,99.80
2019-02-14T04:10:06.787Z,99.90
2019-02-14T04:12:34.685Z,99.90
2019-02-14T04:15:02.471Z,99.90
2019-02-14T04:17:30.240Z,99.90
2019-02-14T04:19:58.146Z,99.90
2019-02-14T04:22:26.021Z,99.90
2019-02-14T04:24:53.783Z,99.90
2019-02-14T04:27:21.955Z,99.90
2019-02-14T04:29:51.535Z,99.90
2019-02-14T04:32:19.298Z,99.90
2019-02-14T04:34:47.318Z,99.50
2019-02-14T04:37:15.282Z,99.90
2019-02-14T04:39:43.185Z,99.90
2019-02-14T04:42:11.327Z,99.90
2019-02-14T04:44:39.407Z,99.90
2019-02-14T04:47:07.507Z,99.90
2019-02-14T04:49:35.272Z,99.90
2019-02-14T04:52:04.692Z,99.70
2019-02-14T04:54:32.662Z,99.60
2019-02-14T04:57:00.848Z,99.90
2019-02-14T04:59:29.142Z,99.70
2019-02-14T05:01:58.476Z,99.80
2019-02-14T05:04:26.645Z,99.80
2019-02-14T05:06:55.033Z,99.90
2019-02-14T05:09:23.376Z,99.70
2019-02-14T05:11:51.451Z,99.50
2019-02-14T05:14:19.369Z,99.30
2019-02-14T05:16:48.413Z,99.70
2019-02-14T05:19:19.771Z,99.80
2019-02-14T05:21:48.109Z,99.60
2019-02-14T05:24:15.893Z,99.90
2019-02-14T05:26:43.869Z,99.80
2019-02-14T05:29:11.658Z,99.50
2019-02-14T05:31:39.607Z,99.50
2019-02-14T05:34:07.676Z,99.40
2019-02-14T05:36:37.257Z,99.60
2019-02-14T05:39:05.609Z,99.70
2019-02-14T05:41:33.751Z,99.50
2019-02-14T05:44:01.551Z,98.90
2019-02-14T05:46:29.343Z,99.30
2019-02-14T05:48:58.524Z,99.30
2019-02-14T05:51:26.482Z,99.40
2019-02-14T05:53:54.252Z,99.90
2019-02-14T05:56:24.251Z,99.90
2019-02-14T05:58:52.044Z,99.90
2019-02-14T06:01:20.123Z,99.90
2019-02-14T06:03:48.070Z,99.90
2019-02-14T06:06:16.066Z,99.90
2019-02-14T06:08:43.864Z,99.90
2019-02-14T06:11:11.801Z,99.90
2019-02-14T06:13:39.604Z,99.90
2019-02-14T06:16:07.928Z,99.90
2019-02-14T06:18:37.648Z,99.90
2019-02-14T06:21:06.850Z,99.90
2019-02-14T06:23:34.627Z,99.90
2019-02-14T06:26:02.402Z,99.90
2019-02-14T06:28:30.355Z,99.90
2019-02-14T06:30:58.167Z,99.90
2019-02-14T06:33:25.961Z,99.90
2019-02-14T06:35:53.982Z,99.90
2019-02-14T06:38:21.780Z,99.90
2019-02-14T06:40:49.581Z,99.90
2019-02-14T06:44:19.919Z,99.90
2019-02-14T06:46:47.710Z,99.90
2019-02-14T06:50:37.008Z,99.90
2019-02-14T06:53:04.879Z,99.90
2019-02-14T06:55:32.661Z,99.90
2019-02-14T06:58:00.618Z,99.90
2019-02-14T07:00:28.520Z,99.90
2019-02-14T07:02:56.323Z,99.90
2019-02-14T07:05:24.232Z,99.90
2019-02-14T07:07:52.155Z,99.90
2019-02-14T07:10:19.944Z,99.90
2019-02-14T07:12:47.839Z,99.90
2019-02-14T07:15:15.622Z,99.90
2019-02-14T07:17:43.389Z,99.90
2019-02-14T07:20:13.077Z,99.90
2019-02-14T07:22:40.963Z,99.90
2019-02-14T07:25:09.611Z,99.90
2019-02-14T07:27:37.548Z,99.90
2019-02-14T07:30:10.577Z,99.90
2019-02-14T07:32:38.365Z,99.90
2019-02-14T07:35:07.407Z,99.90
2019-02-14T07:37:35.394Z,99.90
2019-02-14T07:40:04.200Z,99.90
2019-02-14T07:42:31.994Z,99.90
2019-02-14T07:44:59.757Z,99.90
2019-02-14T07:47:27.661Z,99.90
2019-02-14T07:49:55.761Z,99.90
2019-02-14T07:52:25.316Z,99.90
2019-02-14T07:54:55.148Z,99.90
2019-02-14T07:57:23.146Z,99.90
2019-02-14T07:59:50.912Z,99.90
2019-02-14T08:02:18.711Z,99.90
2019-02-14T08:04:46.642Z,99.90
2019-02-14T08:07:17.006Z,99.90
2019-02-14T08:09:44.975Z,99.90
2019-02-14T08:12:13.025Z,99.90
2019-02-14T08:14:40.819Z,99.90
2019-02-14T08:17:08.776Z,99.90
2019-02-14T08:19:36.567Z,99.90
2019-02-14T08:22:04.340Z,99.90
2019-02-14T08:24:32.277Z,99.90
2019-02-14T08:27:00.046Z,99.90
2019-02-14T08:29:27.840Z,99.90
2019-02-14T08:31:55.798Z,99.90
2019-02-14T08:34:23.576Z,99.90
2019-02-14T08:37:10.977Z,99.90
2019-02-14T08:39:38.756Z,99.90
2019-02-14T08:42:06.566Z,99.90
2019-02-14T08:44:34.483Z,99.90
2019-02-14T08:47:02.257Z,99.90
2019-02-14T08:49:30.229Z,99.90
2019-02-14T08:51:58.020Z,99.90
2019-02-14T08:54:25.867Z,99.90
2019-02-14T08:56:53.837Z,99.90
2019-02-14T08:59:21.623Z,99.90
2019-02-14T09:01:49.490Z,99.90
2019-02-14T09:04:17.280Z,99.90
2019-02-14T09:06:45.334Z,99.90
2019-02-14T09:09:13.112Z,99.90
2019-02-14T09:11:41.115Z,99.90
2019-02-14T09:14:09.055Z,99.90
2019-02-14T09:16:36.915Z,99.90
2019-02-14T09:19:04.899Z,99.90
2019-02-14T09:21:32.672Z,99.90
2019-02-14T09:24:00.459Z,99.90
2019-02-14T09:26:28.404Z,99.90
2019-02-14T09:28:56.185Z,99.90
2019-02-14T09:31:23.943Z,99.60
2019-02-14T09:33:51.935Z,98.70
2019-02-14T09:36:23.006Z,98.00
2019-02-14T09:38:50.968Z,98.00
2019-02-14T09:41:19.267Z,98.80
2019-02-14T09:43:47.031Z,99.00
2019-02-14T09:46:18.122Z,99.50
2019-02-14T09:48:46.098Z,98.20
2019-02-14T09:51:13.860Z,97.70
2019-02-14T09:53:41.626Z,96.60
2019-02-14T09:56:09.632Z,96.30
2019-02-14T09:58:37.405Z,96.30
2019-02-14T10:01:05.196Z,96.70
2019-02-14T10:03:33.071Z,95.00
2019-02-14T10:06:00.878Z,95.10
2019-02-14T10:08:28.878Z,94.90
2019-02-14T10:10:56.855Z,93.80
2019-02-14T10:13:24.768Z,93.10
2019-02-14T10:15:52.653Z,93.50
2019-02-14T10:18:20.446Z,94.60
2019-02-14T10:20:48.232Z,93.50
2019-02-14T10:23:16.206Z,92.10
2019-02-14T10:25:43.972Z,85.70
2019-02-14T10:28:12.839Z,80.70
2019-02-14T10:30:40.738Z,87.00
2019-02-14T10:33:08.641Z,86.90
2019-02-14T10:35:36.432Z,79.30
2019-02-14T10:38:04.226Z,79.40
2019-02-14T10:40:34.550Z,74.50
2019-02-14T10:43:02.594Z,68.70
2019-02-14T10:45:31.348Z,64.50
2019-02-14T10:48:00.080Z,64.70
2019-02-14T10:50:28.251Z,68.90
2019-02-14T10:52:58.007Z,73.10
2019-02-14T10:55:25.945Z,66.10
2019-02-14T10:57:53.863Z,62.00
2019-02-14T11:00:22.201Z,57.60
2019-02-14T11:02:51.148Z,55.70
2019-02-14T11:05:19.553Z,50.40
2019-02-14T11:07:49.401Z,49.30
2019-02-14T11:10:17.179Z,50.10
2019-02-14T11:12:45.325Z,48.00
2019-02-14T11:15:17.670Z,49.10
2019-02-14T11:17:45.995Z,50.70
2019-02-14T11:20:14.288Z,53.60
2019-02-14T11:22:48.746Z,49.70
2019-02-14T11:25:24.627Z,49.80
2019-02-14T11:27:52.574Z,47.90
2019-02-14T11:30:20.558Z,42.90
2019-02-14T11:32:48.399Z,43.30
2019-02-14T11:35:16.411Z,43.80
2019-02-14T11:37:44.194Z,47.90
2019-02-14T11:40:12.473Z,44.80
2019-02-14T11:42:40.646Z,42.90
2019-02-14T11:45:11.688Z,45.60
2019-02-14T11:47:39.533Z,40.80
2019-02-14T11:50:09.128Z,43.90
2019-02-14T11:52:36.925Z,46.70
2019-02-14T11:55:06.235Z,50.00
2019-02-14T11:57:34.003Z,50.90
2019-02-14T12:00:02.038Z,53.50
2019-02-14T12:02:30.154Z,50.70
2019-02-14T12:04:58.136Z,48.60
2019-02-14T12:07:25.966Z,53.00
2019-02-14T12:09:53.809Z,46.00
2019-02-14T12:12:23.069Z,46.70
2019-02-14T12:14:51.527Z,44.30
2019-02-14T12:17:19.373Z,42.90
2019-02-14T12:19:48.840Z,44.80
2019-02-14T12:22:16.862Z,41.40
2019-02-14T12:24:44.662Z,44.20
2019-02-14T12:27:12.653Z,43.90
2019-02-14T12:29:40.451Z,38.30
2019-02-14T12:32:08.224Z,41.00
2019-02-14T12:34:36.264Z,32.00
2019-02-14T12:37:04.062Z,35.40
2019-02-14T12:39:31.858Z,36.00
2019-02-14T12:41:59.778Z,36.90
2019-02-14T12:44:27.567Z,35.90
2019-02-14T12:46:55.524Z,35.20
2019-02-14T12:49:23.496Z,39.50
2019-02-14T12:51:51.423Z,37.00
2019-02-14T12:54:19.209Z,38.50
2019-02-14T12:56:47.105Z,36.10
2019-02-14T12:59:14.873Z,33.70
2019-02-14T13:01:42.680Z,38.30
2019-02-14T13:04:10.633Z,38.50
2019-02-14T13:06:38.698Z,35.20
2019-02-14T13:09:07.517Z,33.90
2019-02-14T13:11:35.306Z,37.20
2019-02-14T13:14:04.360Z,36.80
2019-02-14T13:16:32.165Z,35.30
2019-02-14T13:18:59.922Z,33.50
2019-02-14T13:21:31.097Z,35.10
2019-02-14T13:23:59.013Z,35.30
2019-02-14T13:26:26.803Z,35.90
2019-02-14T13:28:54.951Z,35.20
2019-02-14T13:31:31.321Z,36.70
2019-02-14T13:33:52.561Z,36.70
2019-02-14T13:36:20.349Z,34.60
2019-02-14T13:38:49.089Z,34.60
2019-02-14T13:41:18.134Z,35.60
2019-02-14T13:43:45.924Z,33.00
2019-02-14T13:46:13.706Z,34.90
2019-02-14T13:48:41.726Z,33.10
2019-02-14T13:51:09.529Z,34.70
2019-02-14T13:53:37.473Z,33.60
2019-02-14T13:56:06.348Z,33.60
2019-02-14T13:58:34.155Z,32.50
2019-02-14T14:01:03.431Z,33.00
2019-02-14T14:03:31.469Z,32.00
2019-02-14T14:05:59.233Z,34.10
2019-02-14T14:08:27.263Z,33.40
2019-02-14T14:10:55.047Z,32.60
2019-02-14T14:13:22.804Z,30.70
2019-02-14T14:15:50.779Z,33.60
2019-02-14T14:18:18.568Z,33.10
2019-02-14T14:20:46.536Z,32.70
2019-02-14T14:23:16.219Z,33.80
2019-02-14T14:25:44.159Z,33.70
2019-02-14T14:28:11.947Z,31.80
2019-02-14T14:30:39.946Z,32.30
2019-02-14T14:33:07.861Z,31.20
2019-02-14T14:35:35.788Z,32.90
2019-02-14T14:38:03.763Z,32.10
2019-02-14T14:40:31.570Z,33.00
2019-02-14T14:43:24.895Z,32.00
2019-02-14T14:46:15.316Z,32.00
2019-02-14T14:48:43.690Z,31.60
2019-02-14T14:51:11.941Z,30.70
2019-02-14T14:53:41.147Z,32.70
2019-02-14T14:56:09.143Z,31.80
2019-02-14T14:58:37.156Z,30.40
2019-02-14T15:01:05.163Z,30.90
2019-02-14T15:03:32.964Z,28.90
2019-02-14T15:06:00.881Z,27.30
2019-02-14T15:08:28.883Z,28.10
2019-02-14T15:10:56.857Z,25.80
2019-02-14T15:13:24.830Z,26.70
2019-02-14T15:15:52.624Z,27.20
2019-02-14T15:18:20.420Z,26.20
2019-02-14T15:20:48.649Z,25.60
2019-02-14T15:23:16.467Z,25.50
2019-02-14T15:25:44.270Z,25.60
2019-02-14T15:28:12.370Z,26.50
2019-02-14T15:30:40.344Z,27.20
2019-02-14T15:33:09.235Z,26.70
2019-02-14T15:35:37.055Z,28.40
2019-02-14T15:38:04.979Z,27.10
2019-02-14T15:40:32.951Z,27.60
2019-02-14T15:43:00.877Z,28.70
2019-02-14T15:45:28.668Z,28.50
2019-02-14T15:47:56.667Z,28.90
2019-02-14T15:50:24.484Z,29.40
2019-02-14T15:52:54.180Z,29.20
2019-02-14T15:55:24.188Z,29.50
2019-02-14T15:57:52.001Z,29.30
2019-02-14T16:00:22.551Z,29.50
2019-02-14T16:02:52.406Z,30.50
2019-02-14T16:05:20.420Z,30.30
2019-02-14T16:07:48.214Z,32.40
2019-02-14T16:10:18.687Z,33.80
2019-02-14T16:12:46.137Z,33.70
2019-02-14T16:15:14.125Z,34.50
2019-02-14T16:17:41.949Z,35.40
2019-02-14T16:20:11.384Z,35.40
2019-02-14T16:22:40.202Z,36.40
2019-02-14T16:25:08.914Z,37.00
2019-02-14T16:27:36.841Z,37.90
2019-02-14T16:30:09.190Z,37.60
2019-02-14T16:32:36.936Z,39.00
2019-02-14T16:35:05.238Z,39.30
2019-02-14T16:37:33.247Z,41.20
2019-02-14T16:40:01.056Z,41.10
2019-02-14T16:42:29.290Z,41.20
2019-02-14T16:44:57.221Z,42.50
2019-02-14T16:47:25.046Z,42.50
2019-02-14T16:49:53.126Z,43.10
2019-02-14T16:52:22.737Z,43.00
2019-02-14T16:54:50.574Z,44.20
2019-02-14T16:57:18.582Z,44.10
2019-02-14T16:59:46.421Z,44.90
2019-02-14T17:02:14.203Z,44.10
2019-02-14T17:04:47.780Z,43.90
2019-02-14T17:07:15.677Z,45.20
2019-02-14T17:09:43.664Z,45.40
2019-02-14T17:12:11.527Z,45.70
2019-02-14T17:14:39.344Z,46.00
2019-02-14T17:17:07.294Z,47.90
2019-02-14T17:19:35.067Z,49.50
2019-02-14T17:22:03.017Z,47.90
2019-02-14T17:24:30.825Z,49.70
2019-02-14T17:26:58.755Z,49.80
2019-02-14T17:29:26.551Z,48.10
2019-02-14T17:31:54.494Z,50.50
2019-02-14T17:34:22.365Z,50.50
2019-02-14T17:36:50.187Z,50.50
2019-02-14T17:39:18.309Z,52.50
2019-02-14T17:41:46.134Z,53.40
2019-02-14T17:44:13.976Z,53.30
2019-02-14T17:46:41.951Z,52.10
2019-02-14T17:49:09.749Z,52.30
2019-02-14T17:51:37.561Z,53.70
2019-02-14T17:54:05.642Z,55.10
2019-02-14T17:56:33.400Z,55.70
2019-02-14T17:59:01.911Z,56.10
2019-02-14T18:01:29.885Z,59.00
2019-02-14T18:03:57.954Z,59.10
2019-02-14T18:06:25.923Z,58.50
2019-02-14T18:08:53.917Z,57.80
2019-02-14T18:11:21.724Z,58.20
2019-02-14T18:13:49.633Z,59.10
2019-02-14T18:16:17.459Z,61.70
2019-02-14T18:18:45.245Z,61.00
2019-02-14T18:21:13.152Z,61.50
2019-02-14T18:23:40.964Z,61.60
2019-02-14T18:26:09.155Z,61.90
2019-02-14T18:28:38.189Z,63.00
2019-02-14T18:31:06.261Z,61.80
2019-02-14T18:33:34.174Z,62.60
2019-02-14T18:36:04.084Z,63.20
2019-02-14T18:38:33.071Z,64.30
2019-02-14T18:41:04.216Z,64.00
2019-02-14T18:43:30.885Z,65.00
2019-02-14T18:45:58.820Z,64.70
2019-02-14T18:48:26.623Z,65.50
2019-02-14T18:50:54.408Z,65.80
2019-02-14T18:53:22.563Z,66.20
2019-02-14T18:55:50.337Z,66.60
2019-02-14T18:58:26.064Z,66.60
2019-02-14T19:00:48.008Z,66.40
2019-02-14T19:03:15.920Z,67.70
2019-02-14T19:05:43.846Z,67.10
2019-02-14T19:08:11.858Z,66.30
2019-02-14T19:10:39.700Z,68.20
2019-02-14T19:13:07.485Z,69.00
2019-02-14T19:15:35.476Z,69.70
2019-02-14T19:18:03.731Z,69.50
2019-02-14T19:20:31.658Z,70.30
2019-02-14T19:22:59.747Z,70.00
2019-02-14T19:25:29.580Z,69.70
2019-02-14T19:27:57.545Z,70.60
2019-02-14T19:30:25.523Z,70.00
2019-02-14T19:32:53.353Z,70.40
2019-02-14T19:35:23.334Z,71.90
2019-02-14T19:37:51.005Z,71.40
2019-02-14T19:40:21.943Z,71.60
2019-02-14T19:42:49.958Z,72.60
2019-02-14T19:45:18.088Z,72.70
2019-02-14T19:47:45.949Z,72.90
2019-02-14T19:50:13.862Z,73.30
2019-02-14T19:52:42.930Z,72.80
2019-02-14T19:55:10.736Z,72.40
2019-02-14T19:57:38.550Z,71.90
2019-02-14T20:00:08.943Z,72.60
2019-02-14T20:02:36.816Z,73.00
2019-02-14T20:05:06.250Z,73.40
2019-02-14T20:07:34.242Z,76.50
2019-02-14T20:10:02.075Z,77.40
2019-02-14T20:12:29.905Z,76.30
2019-02-14T20:14:57.972Z,76.50
2019-02-14T20:17:25.813Z,76.50
2019-02-14T20:19:54.830Z,75.80
2019-02-14T20:22:23.933Z,76.10
2019-02-14T20:24:51.909Z,76.90
2019-02-14T20:27:19.826Z,78.00
2019-02-14T20:29:47.918Z,78.60
2019-02-14T20:32:15.924Z,78.70
2019-02-14T20:34:43.795Z,78.70
2019-02-14T20:37:11.603Z,79.60
2019-02-14T20:39:39.655Z,78.90
2019-02-14T20:42:07.485Z,79.30
2019-02-14T20:44:35.486Z,77.40
2019-02-14T20:47:03.304Z,78.90
2019-02-14T20:49:31.142Z,78.80
2019-02-14T20:52:00.129Z,78.40
2019-02-14T20:54:27.915Z,81.10
2019-02-14T20:56:55.857Z,80.60
2019-02-14T20:59:24.220Z,81.60
2019-02-14T21:01:52.032Z,81.50
2019-02-14T21:04:21.779Z,82.10
2019-02-14T21:06:49.668Z,81.10
2019-02-14T21:09:17.776Z,82.40
2019-02-14T21:11:54.251Z,82.90
2019-02-14T21:14:15.439Z,81.50
2019-02-14T21:16:43.435Z,82.50
2019-02-14T21:19:11.209Z,81.00
2019-02-14T21:21:39.045Z,83.30
2019-02-14T21:24:07.020Z,84.00
2019-02-14T21:26:34.925Z,84.50
2019-02-14T21:29:02.671Z,84.40
2019-02-14T21:31:30.874Z,84.20
2019-02-14T21:33:58.667Z,84.10
2019-02-14T21:36:26.640Z,83.80
2019-02-14T21:38:54.587Z,84.30
2019-02-14T21:41:22.363Z,84.70
2019-02-14T21:43:50.195Z,84.60
2019-02-14T21:46:18.218Z,84.30
2019-02-14T21:48:46.006Z,83.90
2019-02-14T21:51:18.069Z,85.10
2019-02-14T21:53:45.910Z,83.70
2019-02-14T21:56:13.800Z,84.70
2019-02-14T21:58:41.871Z,84.40
2019-02-14T22:01:11.486Z,85.80
2019-02-14T22:03:39.576Z,86.30
2019-02-14T22:06:07.581Z,85.90
2019-02-14T22:09:24.387Z,85.80
2019-02-14T22:11:52.387Z,86.60
2019-02-14T22:14:20.356Z,87.00
2019-02-14T22:16:48.193Z,86.80
2019-02-14T22:19:16.201Z,86.70
2019-02-14T22:21:44.101Z,86.80
2019-02-14T22:24:12.565Z,87.50
2019-02-14T22:26:40.444Z,87.60
2019-02-14T22:29:08.205Z,88.20
2019-02-14T22:31:36.160Z,88.20
2019-02-14T22:34:04.173Z,88.20
2019-02-14T22:36:31.960Z,87.50
2019-02-14T22:38:59.962Z,87.50
2019-02-14T22:41:27.955Z,87.70
2019-02-14T22:43:55.841Z,87.20
2019-02-14T22:46:23.651Z,87.20
2019-02-14T22:48:51.674Z,87.20
2019-02-14T22:51:19.480Z,88.00
2019-02-14T22:53:47.258Z,87.80
2019-02-14T22:56:15.209Z,89.40
2019-02-14T22:58:42.986Z,88.40
2019-02-14T23:01:11.088Z,89.00
2019-02-14T23:03:38.869Z,89.70
2019-02-14T23:06:06.788Z,89.80
2019-02-14T23:08:36.414Z,89.90
2019-02-14T23:11:04.213Z,89.60
2019-02-14T23:13:32.007Z,89.40
2019-02-14T23:15:59.942Z,89.80
2019-02-14T23:18:27.819Z,89.80
2019-02-14T23:20:55.842Z,89.90
2019-02-14T23:23:23.665Z,89.60
2019-02-14T23:25:51.580Z,90.00
2019-02-14T23:28:19.355Z,90.00
2019-02-14T23:30:47.136Z,90.00
2019-02-14T23:33:15.024Z,90.70
2019-02-14T23:35:43.023Z,90.70
2019-02-14T23:38:10.940Z,90.70
2019-02-14T23:40:38.715Z,90.60
2019-02-14T23:43:07.316Z,89.80
2019-02-14T23:45:35.591Z,90.40
2019-02-14T23:48:03.551Z,90.70
2019-02-14T23:50:31.328Z,90.70
2019-02-14T23:52:59.286Z,91.10
2019-02-14T23:55:27.116Z,90.90
2019-02-14T23:57:54.906Z,90.50
